sensor_id;sensor_type;location;lat;lon;timestamp;P1;durP1;ratioP1;P2;durP2;ratioP2
66127;SDS011;52925;52.436;-1.952;2023-07-08T00:00:17;5.63;;;4.37;;
66127;SDS011;52925;52.436;-1.952;2023-07-08T00:01:40;8.00;;;4.57;;
66127;SDS011;52925;52.436;-1.952;2023-07-08T00:03:00;5.70;;;4.83;;
66127;SDS011;52925;52.436;-1.952;2023-07-08T00:04:20;6.80;;;4.80;;
66127;SDS011;52925;52.436;-1.952;2023-07-08T00:05:41;6.57;;;4.57;;
66127;SDS011;52925;52.436;-1.952;2023-07-08T00:07:01;5.17;;;4.40;;
66127;SDS011;52925;52.436;-1.952;2023-07-08T00:08:21;6.03;;;4.30;;
66127;SDS011;52925;52.436;-1.952;2023-07-08T00:09:42;5.87;;;4.80;;
66127;SDS011;52925;52.436;-1.952;2023-07-08T00:11:04;7.30;;;4.50;;
66127;SDS011;52925;52.436;-1.952;2023-07-08T00:12:29;5.43;;;4.67;;
66127;SDS011;52925;52.436;-1.952;2023-07-08T00:13:50;5.30;;;4.43;;
66127;SDS011;52925;52.436;-1.952;2023-07-08T00:15:11;6.73;;;4.50;;
66127;SDS011;52925;52.436;-1.952;2023-07-08T00:16:31;6.00;;;4.70;;
66127;SDS011;52925;52.436;-1.952;2023-07-08T00:17:52;6.93;;;4.70;;
66127;SDS011;52925;52.436;-1.952;2023-07-08T00:19:12;5.73;;;4.63;;
66127;SDS011;52925;52.436;-1.952;2023-07-08T00:20:36;7.93;;;4.70;;
66127;SDS011;52925;52.436;-1.952;2023-07-08T00:21:58;7.70;;;5.27;;
66127;SDS011;52925;52.436;-1.952;2023-07-08T00:23:19;8.20;;;4.57;;
66127;SDS011;52925;52.436;-1.952;2023-07-08T00:24:41;6.83;;;4.53;;
66127;SDS011;52925;52.436;-1.952;2023-07-08T00:26:01;6.23;;;4.27;;
66127;SDS011;52925;52.436;-1.952;2023-07-08T00:27:28;7.90;;;5.03;;
66127;SDS011;52925;52.436;-1.952;2023-07-08T00:28:48;8.30;;;4.77;;
66127;SDS011;52925;52.436;-1.952;2023-07-08T00:30:16;9.33;;;4.50;;
66127;SDS011;52925;52.436;-1.952;2023-07-08T00:31:39;6.03;;;4.80;;
66127;SDS011;52925;52.436;-1.952;2023-07-08T00:33:00;4.90;;;4.20;;
66127;SDS011;52925;52.436;-1.952;2023-07-08T00:34:20;5.83;;;4.13;;
66127;SDS011;52925;52.436;-1.952;2023-07-08T00:35:41;5.77;;;4.60;;
66127;SDS011;52925;52.436;-1.952;2023-07-08T00:37:03;7.30;;;4.10;;
66127;SDS011;52925;52.436;-1.952;2023-07-08T00:38:25;6.57;;;4.87;;
66127;SDS011;52925;52.436;-1.952;2023-07-08T00:39:46;6.40;;;4.53;;
66127;SDS011;52925;52.436;-1.952;2023-07-08T00:41:08;5.53;;;4.57;;
66127;SDS011;52925;52.436;-1.952;2023-07-08T00:42:31;7.00;;;4.00;;
66127;SDS011;52925;52.436;-1.952;2023-07-08T00:43:54;6.53;;;4.47;;
66127;SDS011;52925;52.436;-1.952;2023-07-08T00:45:18;5.57;;;4.20;;
66127;SDS011;52925;52.436;-1.952;2023-07-08T00:46:50;6.00;;;4.60;;
66127;SDS011;52925;52.436;-1.952;2023-07-08T00:48:19;8.30;;;4.07;;
66127;SDS011;52925;52.436;-1.952;2023-07-08T00:49:43;6.53;;;4.47;;
66127;SDS011;52925;52.436;-1.952;2023-07-08T00:51:08;7.23;;;5.13;;
66127;SDS011;52925;52.436;-1.952;2023-07-08T00:52:29;5.23;;;4.00;;
66127;SDS011;52925;52.436;-1.952;2023-07-08T00:53:50;4.87;;;4.13;;
66127;SDS011;52925;52.436;-1.952;2023-07-08T00:55:10;6.70;;;4.70;;
66127;SDS011;52925;52.436;-1.952;2023-07-08T00:56:31;6.73;;;4.20;;
66127;SDS011;52925;52.436;-1.952;2023-07-08T00:57:54;4.87;;;3.97;;
66127;SDS011;52925;52.436;-1.952;2023-07-08T00:59:18;4.97;;;4.40;;
66127;SDS011;52925;52.436;-1.952;2023-07-08T01:00:42;5.17;;;4.30;;
66127;SDS011;52925;52.436;-1.952;2023-07-08T01:02:04;5.10;;;4.40;;
66127;SDS011;52925;52.436;-1.952;2023-07-08T01:03:28;5.83;;;4.03;;
66127;SDS011;52925;52.436;-1.952;2023-07-08T01:04:53;7.37;;;4.40;;
66127;SDS011;52925;52.436;-1.952;2023-07-08T01:06:17;4.87;;;4.30;;
66127;SDS011;52925;52.436;-1.952;2023-07-08T01:07:40;6.93;;;4.00;;
66127;SDS011;52925;52.436;-1.952;2023-07-08T01:09:03;7.40;;;4.20;;
66127;SDS011;52925;52.436;-1.952;2023-07-08T01:10:25;7.00;;;4.37;;
66127;SDS011;52925;52.436;-1.952;2023-07-08T01:11:48;8.07;;;4.70;;
66127;SDS011;52925;52.436;-1.952;2023-07-08T01:13:09;6.53;;;4.77;;
66127;SDS011;52925;52.436;-1.952;2023-07-08T01:14:32;4.90;;;4.20;;
66127;SDS011;52925;52.436;-1.952;2023-07-08T01:15:55;4.73;;;4.20;;
66127;SDS011;52925;52.436;-1.952;2023-07-08T01:17:15;6.00;;;4.27;;
66127;SDS011;52925;52.436;-1.952;2023-07-08T01:18:36;8.17;;;4.80;;
66127;SDS011;52925;52.436;-1.952;2023-07-08T01:19:58;5.97;;;4.30;;
66127;SDS011;52925;52.436;-1.952;2023-07-08T01:21:28;6.57;;;4.10;;
66127;SDS011;52925;52.436;-1.952;2023-07-08T01:22:52;5.10;;;3.97;;
66127;SDS011;52925;52.436;-1.952;2023-07-08T01:24:13;4.77;;;4.10;;
66127;SDS011;52925;52.436;-1.952;2023-07-08T01:25:33;6.47;;;4.37;;
66127;SDS011;52925;52.436;-1.952;2023-07-08T01:26:54;7.53;;;4.77;;
66127;SDS011;52925;52.436;-1.952;2023-07-08T01:28:15;7.30;;;4.53;;
66127;SDS011;52925;52.436;-1.952;2023-07-08T01:29:37;5.33;;;4.43;;
66127;SDS011;52925;52.436;-1.952;2023-07-08T01:30:57;5.97;;;4.53;;
66127;SDS011;52925;52.436;-1.952;2023-07-08T01:32:18;6.10;;;4.50;;
66127;SDS011;52925;52.436;-1.952;2023-07-08T01:33:38;6.73;;;4.73;;
66127;SDS011;52925;52.436;-1.952;2023-07-08T01:35:00;6.43;;;4.63;;
66127;SDS011;52925;52.436;-1.952;2023-07-08T01:36:21;7.20;;;4.37;;
66127;SDS011;52925;52.436;-1.952;2023-07-08T01:37:42;6.23;;;4.57;;
66127;SDS011;52925;52.436;-1.952;2023-07-08T01:39:08;5.53;;;4.50;;
66127;SDS011;52925;52.436;-1.952;2023-07-08T01:40:32;5.77;;;5.03;;
66127;SDS011;52925;52.436;-1.952;2023-07-08T01:41:55;6.30;;;4.60;;
66127;SDS011;52925;52.436;-1.952;2023-07-08T01:43:16;5.73;;;4.20;;
66127;SDS011;52925;52.436;-1.952;2023-07-08T01:44:36;5.97;;;4.87;;
66127;SDS011;52925;52.436;-1.952;2023-07-08T01:45:57;6.27;;;4.53;;
66127;SDS011;52925;52.436;-1.952;2023-07-08T01:47:21;7.17;;;4.73;;
66127;SDS011;52925;52.436;-1.952;2023-07-08T01:48:44;7.90;;;4.83;;
66127;SDS011;52925;52.436;-1.952;2023-07-08T01:50:08;5.00;;;4.50;;
66127;SDS011;52925;52.436;-1.952;2023-07-08T01:51:29;6.07;;;4.50;;
66127;SDS011;52925;52.436;-1.952;2023-07-08T01:52:51;7.37;;;4.37;;
66127;SDS011;52925;52.436;-1.952;2023-07-08T01:54:16;7.57;;;5.23;;
66127;SDS011;52925;52.436;-1.952;2023-07-08T01:55:37;5.50;;;4.50;;
66127;SDS011;52925;52.436;-1.952;2023-07-08T01:56:57;6.00;;;4.30;;
66127;SDS011;52925;52.436;-1.952;2023-07-08T01:58:19;6.97;;;4.17;;
66127;SDS011;52925;52.436;-1.952;2023-07-08T01:59:39;4.90;;;4.17;;
66127;SDS011;52925;52.436;-1.952;2023-07-08T02:01:00;7.47;;;4.37;;
66127;SDS011;52925;52.436;-1.952;2023-07-08T02:02:20;6.07;;;4.13;;
66127;SDS011;52925;52.436;-1.952;2023-07-08T02:03:43;5.63;;;4.30;;
66127;SDS011;52925;52.436;-1.952;2023-07-08T02:05:05;6.83;;;4.80;;
66127;SDS011;52925;52.436;-1.952;2023-07-08T02:06:25;5.77;;;4.23;;
66127;SDS011;52925;52.436;-1.952;2023-07-08T02:07:46;6.53;;;4.60;;
66127;SDS011;52925;52.436;-1.952;2023-07-08T02:09:06;6.23;;;4.60;;
66127;SDS011;52925;52.436;-1.952;2023-07-08T02:10:29;6.33;;;4.37;;
66127;SDS011;52925;52.436;-1.952;2023-07-08T02:11:49;5.83;;;4.23;;
66127;SDS011;52925;52.436;-1.952;2023-07-08T02:13:09;6.37;;;4.77;;
66127;SDS011;52925;52.436;-1.952;2023-07-08T02:14:29;5.57;;;4.50;;
66127;SDS011;52925;52.436;-1.952;2023-07-08T02:15:50;5.87;;;4.37;;
66127;SDS011;52925;52.436;-1.952;2023-07-08T02:17:10;6.80;;;4.67;;
66127;SDS011;52925;52.436;-1.952;2023-07-08T02:18:35;4.97;;;4.47;;
66127;SDS011;52925;52.436;-1.952;2023-07-08T02:19:55;5.77;;;4.10;;
66127;SDS011;52925;52.436;-1.952;2023-07-08T02:21:16;6.03;;;4.53;;
66127;SDS011;52925;52.436;-1.952;2023-07-08T02:22:38;6.73;;;4.40;;
66127;SDS011;52925;52.436;-1.952;2023-07-08T02:23:57;6.00;;;4.07;;
66127;SDS011;52925;52.436;-1.952;2023-07-08T02:25:20;7.30;;;4.37;;
66127;SDS011;52925;52.436;-1.952;2023-07-08T02:26:41;5.63;;;4.30;;
66127;SDS011;52925;52.436;-1.952;2023-07-08T02:28:03;8.33;;;4.50;;
66127;SDS011;52925;52.436;-1.952;2023-07-08T02:29:23;6.37;;;4.57;;
66127;SDS011;52925;52.436;-1.952;2023-07-08T02:30:44;5.37;;;4.27;;
66127;SDS011;52925;52.436;-1.952;2023-07-08T02:32:05;5.10;;;4.23;;
66127;SDS011;52925;52.436;-1.952;2023-07-08T02:33:28;6.63;;;4.40;;
66127;SDS011;52925;52.436;-1.952;2023-07-08T02:34:51;6.17;;;4.80;;
66127;SDS011;52925;52.436;-1.952;2023-07-08T02:36:12;6.03;;;3.97;;
66127;SDS011;52925;52.436;-1.952;2023-07-08T02:37:32;5.33;;;3.83;;
66127;SDS011;52925;52.436;-1.952;2023-07-08T02:38:53;6.83;;;4.30;;
66127;SDS011;52925;52.436;-1.952;2023-07-08T02:40:13;6.77;;;4.30;;
66127;SDS011;52925;52.436;-1.952;2023-07-08T02:41:34;5.80;;;4.83;;
66127;SDS011;52925;52.436;-1.952;2023-07-08T02:42:55;6.10;;;3.83;;
66127;SDS011;52925;52.436;-1.952;2023-07-08T02:44:16;4.47;;;3.93;;
66127;SDS011;52925;52.436;-1.952;2023-07-08T02:45:36;4.87;;;4.37;;
66127;SDS011;52925;52.436;-1.952;2023-07-08T02:46:56;6.67;;;4.00;;
66127;SDS011;52925;52.436;-1.952;2023-07-08T02:48:17;5.73;;;4.57;;
66127;SDS011;52925;52.436;-1.952;2023-07-08T02:49:38;6.60;;;4.07;;
66127;SDS011;52925;52.436;-1.952;2023-07-08T02:50:58;4.20;;;3.77;;
66127;SDS011;52925;52.436;-1.952;2023-07-08T02:52:19;5.57;;;4.40;;
66127;SDS011;52925;52.436;-1.952;2023-07-08T02:53:39;6.60;;;4.40;;
66127;SDS011;52925;52.436;-1.952;2023-07-08T02:55:00;6.47;;;4.60;;
66127;SDS011;52925;52.436;-1.952;2023-07-08T02:56:20;4.70;;;4.13;;
66127;SDS011;52925;52.436;-1.952;2023-07-08T02:57:42;6.57;;;4.30;;
66127;SDS011;52925;52.436;-1.952;2023-07-08T02:59:03;5.70;;;4.33;;
66127;SDS011;52925;52.436;-1.952;2023-07-08T03:00:25;5.57;;;4.27;;
66127;SDS011;52925;52.436;-1.952;2023-07-08T03:01:45;6.63;;;4.30;;
66127;SDS011;52925;52.436;-1.952;2023-07-08T03:03:06;6.93;;;4.20;;
66127;SDS011;52925;52.436;-1.952;2023-07-08T03:04:27;4.07;;;3.67;;
66127;SDS011;52925;52.436;-1.952;2023-07-08T03:05:56;5.50;;;4.17;;
66127;SDS011;52925;52.436;-1.952;2023-07-08T03:07:17;5.63;;;4.73;;
66127;SDS011;52925;52.436;-1.952;2023-07-08T03:08:38;6.83;;;3.93;;
66127;SDS011;52925;52.436;-1.952;2023-07-08T03:09:58;5.77;;;4.30;;
66127;SDS011;52925;52.436;-1.952;2023-07-08T03:11:19;4.97;;;3.97;;
66127;SDS011;52925;52.436;-1.952;2023-07-08T03:12:38;6.37;;;4.20;;
66127;SDS011;52925;52.436;-1.952;2023-07-08T03:13:59;6.20;;;4.03;;
66127;SDS011;52925;52.436;-1.952;2023-07-08T03:15:20;4.90;;;4.40;;
66127;SDS011;52925;52.436;-1.952;2023-07-08T03:16:41;5.00;;;3.93;;
66127;SDS011;52925;52.436;-1.952;2023-07-08T03:18:01;4.47;;;3.93;;
66127;SDS011;52925;52.436;-1.952;2023-07-08T03:19:22;5.17;;;4.20;;
66127;SDS011;52925;52.436;-1.952;2023-07-08T03:20:42;6.97;;;4.57;;
66127;SDS011;52925;52.436;-1.952;2023-07-08T03:22:05;5.63;;;4.30;;
66127;SDS011;52925;52.436;-1.952;2023-07-08T03:23:26;5.50;;;4.07;;
66127;SDS011;52925;52.436;-1.952;2023-07-08T03:24:48;5.90;;;4.20;;
66127;SDS011;52925;52.436;-1.952;2023-07-08T03:26:13;7.00;;;4.17;;
66127;SDS011;52925;52.436;-1.952;2023-07-08T03:27:35;6.37;;;4.10;;
66127;SDS011;52925;52.436;-1.952;2023-07-08T03:28:55;7.27;;;4.53;;
66127;SDS011;52925;52.436;-1.952;2023-07-08T03:30:18;4.47;;;4.00;;
66127;SDS011;52925;52.436;-1.952;2023-07-08T03:31:39;4.90;;;4.37;;
66127;SDS011;52925;52.436;-1.952;2023-07-08T03:33:00;5.50;;;4.00;;
66127;SDS011;52925;52.436;-1.952;2023-07-08T03:34:20;4.53;;;3.73;;
66127;SDS011;52925;52.436;-1.952;2023-07-08T03:35:41;5.40;;;4.47;;
66127;SDS011;52925;52.436;-1.952;2023-07-08T03:37:01;5.13;;;4.27;;
66127;SDS011;52925;52.436;-1.952;2023-07-08T03:38:22;7.60;;;4.20;;
66127;SDS011;52925;52.436;-1.952;2023-07-08T03:39:42;4.67;;;4.20;;
66127;SDS011;52925;52.436;-1.952;2023-07-08T03:41:03;5.80;;;4.17;;
66127;SDS011;52925;52.436;-1.952;2023-07-08T03:42:23;6.10;;;4.40;;
66127;SDS011;52925;52.436;-1.952;2023-07-08T03:43:44;6.07;;;3.90;;
66127;SDS011;52925;52.436;-1.952;2023-07-08T03:45:05;5.13;;;4.03;;
66127;SDS011;52925;52.436;-1.952;2023-07-08T03:46:27;5.77;;;4.10;;
66127;SDS011;52925;52.436;-1.952;2023-07-08T03:47:48;5.13;;;4.30;;
66127;SDS011;52925;52.436;-1.952;2023-07-08T03:49:09;5.50;;;4.40;;
66127;SDS011;52925;52.436;-1.952;2023-07-08T03:50:30;6.23;;;4.90;;
66127;SDS011;52925;52.436;-1.952;2023-07-08T03:51:51;6.40;;;4.50;;
66127;SDS011;52925;52.436;-1.952;2023-07-08T03:53:12;5.83;;;4.40;;
66127;SDS011;52925;52.436;-1.952;2023-07-08T03:54:33;6.27;;;4.77;;
66127;SDS011;52925;52.436;-1.952;2023-07-08T03:55:53;5.37;;;4.17;;
66127;SDS011;52925;52.436;-1.952;2023-07-08T03:57:14;7.70;;;4.37;;
66127;SDS011;52925;52.436;-1.952;2023-07-08T03:58:37;6.23;;;4.23;;
66127;SDS011;52925;52.436;-1.952;2023-07-08T03:59:58;5.67;;;4.27;;
66127;SDS011;52925;52.436;-1.952;2023-07-08T04:01:19;6.40;;;4.67;;
66127;SDS011;52925;52.436;-1.952;2023-07-08T04:02:42;5.90;;;4.53;;
66127;SDS011;52925;52.436;-1.952;2023-07-08T04:04:10;6.23;;;4.13;;
66127;SDS011;52925;52.436;-1.952;2023-07-08T04:05:31;6.73;;;4.30;;
66127;SDS011;52925;52.436;-1.952;2023-07-08T04:06:52;5.40;;;4.00;;
66127;SDS011;52925;52.436;-1.952;2023-07-08T04:08:13;4.93;;;4.33;;
66127;SDS011;52925;52.436;-1.952;2023-07-08T04:09:34;4.47;;;4.00;;
66127;SDS011;52925;52.436;-1.952;2023-07-08T04:10:54;7.17;;;4.60;;
66127;SDS011;52925;52.436;-1.952;2023-07-08T04:12:14;7.20;;;4.50;;
66127;SDS011;52925;52.436;-1.952;2023-07-08T04:13:34;4.77;;;4.33;;
66127;SDS011;52925;52.436;-1.952;2023-07-08T04:14:55;6.73;;;4.97;;
66127;SDS011;52925;52.436;-1.952;2023-07-08T04:16:16;4.40;;;3.90;;
66127;SDS011;52925;52.436;-1.952;2023-07-08T04:17:41;6.20;;;4.10;;
66127;SDS011;52925;52.436;-1.952;2023-07-08T04:19:03;6.20;;;3.83;;
66127;SDS011;52925;52.436;-1.952;2023-07-08T04:20:34;5.20;;;4.10;;
66127;SDS011;52925;52.436;-1.952;2023-07-08T04:21:54;5.20;;;4.13;;
66127;SDS011;52925;52.436;-1.952;2023-07-08T04:23:15;4.90;;;4.17;;
66127;SDS011;52925;52.436;-1.952;2023-07-08T04:24:35;5.90;;;3.87;;
66127;SDS011;52925;52.436;-1.952;2023-07-08T04:25:56;6.73;;;4.40;;
66127;SDS011;52925;52.436;-1.952;2023-07-08T04:27:17;5.17;;;4.20;;
66127;SDS011;52925;52.436;-1.952;2023-07-08T04:28:37;4.60;;;3.63;;
66127;SDS011;52925;52.436;-1.952;2023-07-08T04:29:57;5.73;;;4.10;;
66127;SDS011;52925;52.436;-1.952;2023-07-08T04:31:18;6.93;;;3.90;;
66127;SDS011;52925;52.436;-1.952;2023-07-08T04:32:38;4.87;;;3.97;;
66127;SDS011;52925;52.436;-1.952;2023-07-08T04:33:59;4.63;;;4.23;;
66127;SDS011;52925;52.436;-1.952;2023-07-08T04:35:20;6.80;;;4.83;;
66127;SDS011;52925;52.436;-1.952;2023-07-08T04:36:41;5.77;;;4.70;;
66127;SDS011;52925;52.436;-1.952;2023-07-08T04:38:02;5.37;;;4.50;;
66127;SDS011;52925;52.436;-1.952;2023-07-08T04:39:29;5.27;;;4.07;;
66127;SDS011;52925;52.436;-1.952;2023-07-08T04:40:50;4.37;;;3.97;;
66127;SDS011;52925;52.436;-1.952;2023-07-08T04:42:11;5.17;;;4.33;;
66127;SDS011;52925;52.436;-1.952;2023-07-08T04:43:34;6.70;;;4.30;;
66127;SDS011;52925;52.436;-1.952;2023-07-08T04:44:53;5.40;;;3.57;;
66127;SDS011;52925;52.436;-1.952;2023-07-08T04:46:18;5.10;;;4.13;;
66127;SDS011;52925;52.436;-1.952;2023-07-08T04:47:43;8.10;;;4.20;;
66127;SDS011;52925;52.436;-1.952;2023-07-08T04:49:06;5.57;;;4.43;;
66127;SDS011;52925;52.436;-1.952;2023-07-08T04:50:28;7.60;;;4.90;;
66127;SDS011;52925;52.436;-1.952;2023-07-08T04:51:49;6.07;;;4.10;;
66127;SDS011;52925;52.436;-1.952;2023-07-08T04:53:11;5.00;;;3.70;;
66127;SDS011;52925;52.436;-1.952;2023-07-08T04:54:31;5.17;;;4.00;;
66127;SDS011;52925;52.436;-1.952;2023-07-08T04:55:52;5.80;;;4.07;;
66127;SDS011;52925;52.436;-1.952;2023-07-08T04:57:14;5.80;;;4.33;;
66127;SDS011;52925;52.436;-1.952;2023-07-08T04:58:35;5.37;;;4.33;;
66127;SDS011;52925;52.436;-1.952;2023-07-08T04:59:55;7.63;;;4.77;;
66127;SDS011;52925;52.436;-1.952;2023-07-08T05:01:16;6.90;;;5.00;;
66127;SDS011;52925;52.436;-1.952;2023-07-08T05:02:36;5.37;;;4.47;;
66127;SDS011;52925;52.436;-1.952;2023-07-08T05:03:57;6.57;;;5.27;;
66127;SDS011;52925;52.436;-1.952;2023-07-08T05:05:16;7.67;;;5.80;;
66127;SDS011;52925;52.436;-1.952;2023-07-08T05:06:37;8.27;;;5.63;;
66127;SDS011;52925;52.436;-1.952;2023-07-08T05:07:58;8.93;;;6.40;;
66127;SDS011;52925;52.436;-1.952;2023-07-08T05:09:19;7.37;;;5.87;;
66127;SDS011;52925;52.436;-1.952;2023-07-08T05:10:41;7.83;;;5.97;;
66127;SDS011;52925;52.436;-1.952;2023-07-08T05:12:02;7.93;;;5.53;;
66127;SDS011;52925;52.436;-1.952;2023-07-08T05:13:21;9.27;;;5.50;;
66127;SDS011;52925;52.436;-1.952;2023-07-08T05:14:42;7.20;;;4.93;;
66127;SDS011;52925;52.436;-1.952;2023-07-08T05:16:02;7.00;;;5.43;;
66127;SDS011;52925;52.436;-1.952;2023-07-08T05:17:23;8.13;;;5.10;;
66127;SDS011;52925;52.436;-1.952;2023-07-08T05:18:44;7.67;;;5.53;;
66127;SDS011;52925;52.436;-1.952;2023-07-08T05:20:05;6.23;;;5.47;;
66127;SDS011;52925;52.436;-1.952;2023-07-08T05:21:26;6.20;;;5.53;;
66127;SDS011;52925;52.436;-1.952;2023-07-08T05:22:52;6.80;;;4.97;;
66127;SDS011;52925;52.436;-1.952;2023-07-08T05:24:14;6.17;;;5.53;;
66127;SDS011;52925;52.436;-1.952;2023-07-08T05:25:35;5.77;;;4.77;;
66127;SDS011;52925;52.436;-1.952;2023-07-08T05:26:54;5.07;;;4.57;;
66127;SDS011;52925;52.436;-1.952;2023-07-08T05:28:16;5.80;;;5.20;;
66127;SDS011;52925;52.436;-1.952;2023-07-08T05:29:35;6.37;;;5.33;;
66127;SDS011;52925;52.436;-1.952;2023-07-08T05:30:56;8.83;;;5.33;;
66127;SDS011;52925;52.436;-1.952;2023-07-08T05:32:16;8.00;;;5.03;;
66127;SDS011;52925;52.436;-1.952;2023-07-08T05:33:38;6.53;;;5.30;;
66127;SDS011;52925;52.436;-1.952;2023-07-08T05:34:58;5.90;;;5.10;;
66127;SDS011;52925;52.436;-1.952;2023-07-08T05:36:18;6.87;;;5.13;;
66127;SDS011;52925;52.436;-1.952;2023-07-08T05:37:38;7.40;;;5.20;;
66127;SDS011;52925;52.436;-1.952;2023-07-08T05:38:58;6.37;;;4.73;;
66127;SDS011;52925;52.436;-1.952;2023-07-08T05:40:19;7.67;;;4.90;;
66127;SDS011;52925;52.436;-1.952;2023-07-08T05:41:40;6.73;;;5.10;;
66127;SDS011;52925;52.436;-1.952;2023-07-08T05:43:00;5.93;;;4.70;;
66127;SDS011;52925;52.436;-1.952;2023-07-08T05:44:21;5.57;;;4.97;;
66127;SDS011;52925;52.436;-1.952;2023-07-08T05:45:41;6.40;;;4.90;;
66127;SDS011;52925;52.436;-1.952;2023-07-08T05:47:02;7.23;;;4.73;;
66127;SDS011;52925;52.436;-1.952;2023-07-08T05:48:22;9.20;;;5.53;;
66127;SDS011;52925;52.436;-1.952;2023-07-08T05:49:43;6.00;;;4.50;;
66127;SDS011;52925;52.436;-1.952;2023-07-08T05:51:04;6.23;;;5.10;;
66127;SDS011;52925;52.436;-1.952;2023-07-08T05:52:24;6.13;;;5.00;;
66127;SDS011;52925;52.436;-1.952;2023-07-08T05:53:45;6.37;;;4.77;;
66127;SDS011;52925;52.436;-1.952;2023-07-08T05:55:05;7.43;;;4.93;;
66127;SDS011;52925;52.436;-1.952;2023-07-08T05:56:28;8.47;;;4.93;;
66127;SDS011;52925;52.436;-1.952;2023-07-08T05:57:49;5.10;;;4.60;;
66127;SDS011;52925;52.436;-1.952;2023-07-08T05:59:10;5.33;;;4.77;;
66127;SDS011;52925;52.436;-1.952;2023-07-08T06:00:30;7.20;;;5.00;;
66127;SDS011;52925;52.436;-1.952;2023-07-08T06:01:51;6.00;;;4.80;;
66127;SDS011;52925;52.436;-1.952;2023-07-08T06:03:11;6.80;;;5.27;;
66127;SDS011;52925;52.436;-1.952;2023-07-08T06:04:32;6.33;;;4.90;;
66127;SDS011;52925;52.436;-1.952;2023-07-08T06:05:52;6.47;;;4.87;;
66127;SDS011;52925;52.436;-1.952;2023-07-08T06:07:13;5.77;;;4.87;;
66127;SDS011;52925;52.436;-1.952;2023-07-08T06:08:33;5.13;;;4.63;;
66127;SDS011;52925;52.436;-1.952;2023-07-08T06:09:54;5.93;;;4.60;;
66127;SDS011;52925;52.436;-1.952;2023-07-08T06:11:15;7.50;;;4.70;;
66127;SDS011;52925;52.436;-1.952;2023-07-08T06:12:38;6.50;;;4.87;;
66127;SDS011;52925;52.436;-1.952;2023-07-08T06:13:57;9.67;;;5.30;;
66127;SDS011;52925;52.436;-1.952;2023-07-08T06:15:19;6.47;;;4.57;;
66127;SDS011;52925;52.436;-1.952;2023-07-08T06:16:38;6.63;;;4.87;;
66127;SDS011;52925;52.436;-1.952;2023-07-08T06:17:59;5.63;;;4.80;;
66127;SDS011;52925;52.436;-1.952;2023-07-08T06:19:21;6.93;;;4.63;;
66127;SDS011;52925;52.436;-1.952;2023-07-08T06:20:42;5.00;;;4.50;;
66127;SDS011;52925;52.436;-1.952;2023-07-08T06:22:10;4.90;;;4.43;;
66127;SDS011;52925;52.436;-1.952;2023-07-08T06:23:31;5.60;;;5.00;;
66127;SDS011;52925;52.436;-1.952;2023-07-08T06:24:51;4.93;;;4.30;;
66127;SDS011;52925;52.436;-1.952;2023-07-08T06:26:12;5.20;;;4.70;;
66127;SDS011;52925;52.436;-1.952;2023-07-08T06:27:32;6.27;;;4.80;;
66127;SDS011;52925;52.436;-1.952;2023-07-08T06:28:54;5.23;;;4.47;;
66127;SDS011;52925;52.436;-1.952;2023-07-08T06:30:14;5.50;;;4.97;;
66127;SDS011;52925;52.436;-1.952;2023-07-08T06:31:35;5.20;;;4.37;;
66127;SDS011;52925;52.436;-1.952;2023-07-08T06:32:55;6.80;;;4.83;;
66127;SDS011;52925;52.436;-1.952;2023-07-08T06:34:17;6.20;;;4.17;;
66127;SDS011;52925;52.436;-1.952;2023-07-08T06:35:37;5.10;;;4.30;;
66127;SDS011;52925;52.436;-1.952;2023-07-08T06:36:58;4.93;;;4.30;;
66127;SDS011;52925;52.436;-1.952;2023-07-08T06:38:18;6.60;;;4.73;;
66127;SDS011;52925;52.436;-1.952;2023-07-08T06:39:39;5.30;;;4.30;;
66127;SDS011;52925;52.436;-1.952;2023-07-08T06:40:59;6.80;;;4.33;;
66127;SDS011;52925;52.436;-1.952;2023-07-08T06:42:20;4.63;;;4.17;;
66127;SDS011;52925;52.436;-1.952;2023-07-08T06:43:49;5.03;;;4.30;;
66127;SDS011;52925;52.436;-1.952;2023-07-08T06:45:11;5.53;;;4.60;;
66127;SDS011;52925;52.436;-1.952;2023-07-08T06:46:31;6.83;;;4.27;;
66127;SDS011;52925;52.436;-1.952;2023-07-08T06:47:52;5.73;;;4.37;;
66127;SDS011;52925;52.436;-1.952;2023-07-08T06:49:11;6.63;;;4.70;;
66127;SDS011;52925;52.436;-1.952;2023-07-08T06:50:32;5.17;;;4.43;;
66127;SDS011;52925;52.436;-1.952;2023-07-08T06:51:52;6.03;;;4.03;;
66127;SDS011;52925;52.436;-1.952;2023-07-08T06:53:13;6.53;;;4.23;;
66127;SDS011;52925;52.436;-1.952;2023-07-08T06:54:33;6.63;;;4.40;;
66127;SDS011;52925;52.436;-1.952;2023-07-08T06:55:54;5.23;;;4.07;;
66127;SDS011;52925;52.436;-1.952;2023-07-08T06:57:13;4.37;;;3.93;;
66127;SDS011;52925;52.436;-1.952;2023-07-08T06:58:34;4.83;;;4.33;;
66127;SDS011;52925;52.436;-1.952;2023-07-08T06:59:54;4.47;;;3.63;;
66127;SDS011;52925;52.436;-1.952;2023-07-08T07:01:16;5.97;;;3.80;;
66127;SDS011;52925;52.436;-1.952;2023-07-08T07:02:36;4.70;;;4.20;;
66127;SDS011;52925;52.436;-1.952;2023-07-08T07:03:57;6.07;;;4.57;;
66127;SDS011;52925;52.436;-1.952;2023-07-08T07:05:18;5.63;;;4.20;;
66127;SDS011;52925;52.436;-1.952;2023-07-08T07:06:38;5.93;;;4.40;;
66127;SDS011;52925;52.436;-1.952;2023-07-08T07:07:58;4.43;;;3.70;;
66127;SDS011;52925;52.436;-1.952;2023-07-08T07:09:19;5.00;;;4.47;;
66127;SDS011;52925;52.436;-1.952;2023-07-08T07:10:39;6.83;;;4.33;;
66127;SDS011;52925;52.436;-1.952;2023-07-08T07:12:00;6.67;;;4.53;;
66127;SDS011;52925;52.436;-1.952;2023-07-08T07:13:20;5.63;;;4.03;;
66127;SDS011;52925;52.436;-1.952;2023-07-08T07:14:40;5.83;;;4.27;;
66127;SDS011;52925;52.436;-1.952;2023-07-08T07:16:00;3.83;;;3.43;;
66127;SDS011;52925;52.436;-1.952;2023-07-08T07:17:22;5.63;;;4.40;;
66127;SDS011;52925;52.436;-1.952;2023-07-08T07:18:44;7.50;;;4.30;;
66127;SDS011;52925;52.436;-1.952;2023-07-08T07:20:05;6.43;;;4.23;;
66127;SDS011;52925;52.436;-1.952;2023-07-08T07:21:27;5.30;;;3.53;;
66127;SDS011;52925;52.436;-1.952;2023-07-08T07:22:48;6.17;;;3.63;;
66127;SDS011;52925;52.436;-1.952;2023-07-08T07:24:08;6.70;;;3.83;;
66127;SDS011;52925;52.436;-1.952;2023-07-08T07:25:31;4.33;;;3.40;;
66127;SDS011;52925;52.436;-1.952;2023-07-08T07:26:52;5.17;;;4.23;;
66127;SDS011;52925;52.436;-1.952;2023-07-08T07:28:11;4.73;;;3.83;;
66127;SDS011;52925;52.436;-1.952;2023-07-08T07:29:38;6.10;;;4.13;;
66127;SDS011;52925;52.436;-1.952;2023-07-08T07:31:00;4.27;;;3.70;;
66127;SDS011;52925;52.436;-1.952;2023-07-08T07:32:23;4.27;;;3.80;;
66127;SDS011;52925;52.436;-1.952;2023-07-08T07:33:43;4.97;;;4.07;;
66127;SDS011;52925;52.436;-1.952;2023-07-08T07:35:04;4.40;;;3.90;;
66127;SDS011;52925;52.436;-1.952;2023-07-08T07:36:25;7.10;;;3.60;;
66127;SDS011;52925;52.436;-1.952;2023-07-08T07:37:45;7.33;;;4.37;;
66127;SDS011;52925;52.436;-1.952;2023-07-08T07:39:05;4.50;;;3.90;;
66127;SDS011;52925;52.436;-1.952;2023-07-08T07:40:26;4.83;;;4.00;;
66127;SDS011;52925;52.436;-1.952;2023-07-08T07:41:46;6.40;;;4.00;;
66127;SDS011;52925;52.436;-1.952;2023-07-08T07:43:07;4.30;;;3.90;;
66127;SDS011;52925;52.436;-1.952;2023-07-08T07:44:27;5.53;;;4.10;;
66127;SDS011;52925;52.436;-1.952;2023-07-08T07:45:49;9.33;;;3.97;;
66127;SDS011;52925;52.436;-1.952;2023-07-08T07:47:10;4.63;;;3.80;;
66127;SDS011;52925;52.436;-1.952;2023-07-08T07:48:33;5.13;;;4.13;;
66127;SDS011;52925;52.436;-1.952;2023-07-08T07:49:53;5.07;;;3.80;;
66127;SDS011;52925;52.436;-1.952;2023-07-08T07:51:14;8.07;;;4.17;;
66127;SDS011;52925;52.436;-1.952;2023-07-08T07:52:34;4.80;;;3.63;;
66127;SDS011;52925;52.436;-1.952;2023-07-08T07:53:55;6.87;;;4.17;;
66127;SDS011;52925;52.436;-1.952;2023-07-08T07:55:15;3.83;;;3.53;;
66127;SDS011;52925;52.436;-1.952;2023-07-08T07:56:37;6.07;;;4.30;;
66127;SDS011;52925;52.436;-1.952;2023-07-08T07:57:56;5.27;;;4.13;;
66127;SDS011;52925;52.436;-1.952;2023-07-08T07:59:17;4.80;;;3.43;;
66127;SDS011;52925;52.436;-1.952;2023-07-08T08:00:37;5.60;;;3.97;;
66127;SDS011;52925;52.436;-1.952;2023-07-08T08:01:58;5.00;;;3.80;;